Time;durP1;ratioP1;P1;durP2;ratioP2;P2;SDS_P1;SDS_P2;PMS_P1;PMS_P2;Temp;Humidity;BMP_temperature;BMP_pressure;BME280_temperature;BME280_humidity;BME280_pressure;Samples;Min_cycle;Max_cycle;Signal;HPM_P1;HPM_P2
2021/06/29 00:01:17;;;;;;;10.13;2.50;;;22.80;79.10;;;;;;5190152;27;20453;-49
2021/06/29 00:04:22;;;;;;;7.15;2.90;;;22.70;79.30;;;;;;5145770;27;20767;-49
2021/06/29 00:07:16;;;;;;;9.50;2.83;;;22.60;79.80;;;;;;5189755;27;20740;-49
2021/06/29 00:10:25;;;;;;;13.85;3.22;;;22.50;80.50;;;;;;5145454;27;20392;-48
2021/06/29 00:13:23;;;;;;;11.75;3.08;;;22.30;81.00;;;;;;5104698;27;20898;-50
2021/06/29 00:16:18;;;;;;;15.38;3.60;;;22.30;81.10;;;;;;5172764;27;20411;-48
2021/06/29 00:19:18;;;;;;;9.45;3.40;;;22.30;81.20;;;;;;5099183;27;20432;-50
2021/06/29 00:22:12;;;;;;;15.57;3.65;;;22.20;81.50;;;;;;5115680;27;20421;-50
2021/06/29 00:25:14;;;;;;;10.55;3.45;;;22.20;81.60;;;;;;5135352;27;20864;-49
2021/06/29 00:28:09;;;;;;;20.00;4.18;;;22.10;81.60;;;;;;5189966;27;20410;-51
2021/06/29 00:31:07;;;;;;;15.95;4.05;;;22.20;81.60;;;;;;5101959;27;20122;-49
2021/06/29 00:34:02;;;;;;;10.85;2.97;;;22.20;81.40;;;;;;5148467;27;20165;-49
2021/06/29 00:37:02;;;;;;;12.45;3.13;;;22.30;81.30;;;;;;5140279;27;20449;-51
2021/06/29 00:39:57;;;;;;;12.68;3.08;;;22.30;81.20;;;;;;5190621;27;20473;-48
2021/06/29 00:42:48;;;;;;;12.98;3.45;;;22.20;82.00;;;;;;5106872;27;20425;-49
2021/06/29 00:45:48;;;;;;;13.20;3.38;;;22.00;82.30;;;;;;5129752;27;20390;-49
2021/06/29 00:48:52;;;;;;;8.00;3.28;;;21.90;83.30;;;;;;5120829;27;20393;-49
2021/06/29 00:51:47;;;;;;;10.18;3.42;;;21.80;83.90;;;;;;5189951;27;20476;-49
2021/06/29 00:54:42;;;;;;;13.07;3.50;;;21.70;84.30;;;;;;5105287;27;20133;-49
2021/06/29 00:57:37;;;;;;;19.38;3.00;;;21.60;85.40;;;;;;5190435;27;20390;-48
2021/06/29 01:00:28;;;;;;;21.08;3.53;;;21.40;85.40;;;;;;5118494;27;20745;-49
2021/06/29 01:03:23;;;;;;;7.38;3.28;;;21.40;86.10;;;;;;5148466;27;20154;-49
2021/06/29 01:06:33;;;;;;;7.90;3.80;;;21.30;86.90;;;;;;5127007;27;20391;-49
2021/06/29 01:09:24;;;;;;;15.40;4.78;;;21.20;87.50;;;;;;5118991;27;20424;-49
2021/06/29 01:12:19;;;;;;;20.25;4.35;;;21.20;87.90;;;;;;5105471;27;20896;-49
2021/06/29 01:15:14;;;;;;;15.18;3.05;;;21.10;88.10;;;;;;5141179;27;20108;-49
2021/06/29 01:18:12;;;;;;;9.68;2.80;;;21.00;88.20;;;;;;5190299;27;20768;-49
2021/06/29 01:21:22;;;;;;;10.93;3.35;;;21.00;88.80;;;;;;5145595;27;20442;-49
2021/06/29 01:24:31;;;;;;;15.10;3.10;;;21.00;88.80;;;;;;5190444;27;20370;-50
2021/06/29 01:31:09;;;;;;;18.95;4.22;;;21.10;88.00;;;;;;5129179;27;20941;-48
2021/06/29 01:34:05;;;;;;;22.55;4.68;;;21.10;87.70;;;;;;5190213;27;20382;-48
2021/06/29 01:36:59;;;;;;;26.92;5.15;;;21.10;87.60;;;;;;5127268;27;20383;-50
2021/06/29 01:39:59;;;;;;;21.15;4.25;;;21.10;87.60;;;;;;5125784;22;20469;-51
2021/06/29 01:42:57;;;;;;;20.60;4.15;;;21.10;88.20;;;;;;5190336;27;20469;-50
2021/06/29 01:45:54;;;;;;;26.88;5.38;;;21.10;88.30;;;;;;5116274;27;20993;-52
2021/06/29 01:48:50;;;;;;;23.02;4.72;;;21.10;87.70;;;;;;5125943;27;20404;-52
2021/06/29 01:51:45;;;;;;;25.10;4.82;;;21.10;87.50;;;;;;5190412;27;20417;-51
2021/06/29 01:54:42;;;;;;;18.60;4.47;;;21.20;87.40;;;;;;5190348;27;20378;-50
2021/06/29 01:57:41;;;;;;;25.67;4.38;;;21.20;87.10;;;;;;5190206;27;20382;-49
2021/06/29 02:00:35;;;;;;;24.77;4.30;;;21.10;87.40;;;;;;5127701;27;20403;-50
2021/06/29 02:03:30;;;;;;;26.60;5.18;;;21.20;87.90;;;;;;5148456;27;20134;-50
2021/06/29 02:06:21;;;;;;;26.85;5.47;;;21.10;87.50;;;;;;5118659;27;20401;-53
2021/06/29 02:09:17;;;;;;;24.38;4.90;;;21.10;87.60;;;;;;5136526;27;20108;-53
2021/06/29 02:12:25;;;;;;;20.42;4.93;;;21.00;87.40;;;;;;5145770;27;20492;-50
2021/06/29 02:15:21;;;;;;;20.65;4.22;;;20.90;87.90;;;;;;5190441;27;20465;-51
2021/06/29 02:18:15;;;;;;;16.25;4.60;;;20.90;88.80;;;;;;5144786;27;20650;-50
2021/06/29 02:21:12;;;;;;;18.25;4.50;;;20.70;88.90;;;;;;5189024;27;20457;-51
2021/06/29 02:24:06;;;;;;;15.98;3.58;;;20.70;89.30;;;;;;5190492;27;20784;-51
2021/06/29 02:27:10;;;;;;;14.85;4.55;;;20.70;89.40;;;;;;5129351;27;20149;-51
2021/06/29 02:30:06;;;;;;;14.80;4.30;;;20.70;89.30;;;;;;5128203;27;20706;-51
2021/06/29 02:33:04;;;;;;;14.10;3.75;;;20.80;89.40;;;;;;5111278;27;20928;-52
2021/06/29 02:35:59;;;;;;;14.18;3.22;;;20.70;89.20;;;;;;5190256;27;20386;-52
2021/06/29 02:39:04;;;;;;;19.15;4.20;;;20.70;89.60;;;;;;5098581;27;20126;-51
2021/06/29 02:41:59;;;;;;;11.30;4.05;;;20.70;89.50;;;;;;5189956;27;20422;-50
2021/06/29 02:44:54;;;;;;;12.50;3.92;;;20.70;89.80;;;;;;5148292;27;20134;-49
2021/06/29 02:47:49;;;;;;;15.05;4.53;;;20.60;89.80;;;;;;5190189;27;20930;-51
2021/06/29 02:50:44;;;;;;;17.73;3.83;;;20.70;90.20;;;;;;5189964;27;20390;-52
2021/06/29 02:53:39;;;;;;;18.13;4.07;;;20.60;89.60;;;;;;5148276;27;20593;-49
2021/06/29 02:56:38;;;;;;;14.05;3.80;;;20.60;90.00;;;;;;5190192;27;20892;-51
2021/06/29 02:59:32;;;;;;;22.45;3.75;;;20.60;90.10;;;;;;5175600;27;20463;-51
2021/06/29 03:02:27;;;;;;;13.43;3.67;;;20.60;90.00;;;;;;5148449;27;20107;-51
2021/06/29 03:05:22;;;;;;;14.85;4.22;;;20.50;90.10;;;;;;5190217;27;20500;-50
2021/06/29 03:08:17;;;;;;;18.77;4.18;;;20.50;90.20;;;;;;5144784;27;20112;-50
2021/06/29 03:11:12;;;;;;;18.48;4.00;;;20.50;90.20;;;;;;5189985;27;20821;-51
2021/06/29 03:14:09;;;;;;;14.77;3.30;;;20.50;90.30;;;;;;5102809;27;20127;-51
2021/06/29 03:17:20;;;;;;;18.25;3.65;;;20.50;90.50;;;;;;5124445;27;20361;-51
2021/06/29 03:20:21;;;;;;;12.63;3.45;;;20.60;90.40;;;;;;5140119;27;20766;-51
2021/06/29 03:23:27;;;;;;;10.25;3.13;;;20.50;90.70;;;;;;5145762;27;20970;-51
2021/06/29 03:26:19;;;;;;;11.80;3.70;;;20.50;90.90;;;;;;5118243;27;20410;-52
2021/06/29 03:29:11;;;;;;;16.90;3.92;;;20.40;91.00;;;;;;5096131;27;20364;-51
2021/06/29 03:32:06;;;;;;;14.43;2.72;;;20.40;91.10;;;;;;5190486;27;20395;-49
2021/06/29 03:35:07;;;;;;;11.07;3.28;;;20.40;91.10;;;;;;5190471;27;20417;-50
2021/06/29 03:37:58;;;;;;;16.67;4.20;;;20.40;91.10;;;;;;5117224;27;20467;-49
2021/06/29 03:40:53;;;;;;;8.52;3.35;;;20.50;91.10;;;;;;5144904;27;20316;-51
2021/06/29 03:43:48;;;;;;;14.10;3.70;;;20.50;90.90;;;;;;5100424;27;20545;-51
2021/06/29 03:46:51;;;;;;;13.27;2.95;;;20.60;91.00;;;;;;5129414;27;20416;-51
2021/06/29 03:49:41;;;;;;;22.90;3.40;;;20.60;91.00;;;;;;5102909;27;20399;-51
2021/06/29 03:52:37;;;;;;;11.95;3.25;;;20.60;91.10;;;;;;5105213;27;20331;-51
2021/06/29 03:55:40;;;;;;;12.02;3.33;;;20.70;91.30;;;;;;5129431;27;20510;-49
2021/06/29 03:58:35;;;;;;;13.55;3.22;;;20.70;91.20;;;;;;5184022;27;20905;-51
2021/06/29 04:01:30;;;;;;;18.65;3.53;;;20.70;91.20;;;;;;5189980;27;20409;-50
2021/06/29 04:04:27;;;;;;;11.68;3.63;;;20.80;91.00;;;;;;5111108;27;20870;-51
2021/06/29 04:07:24;;;;;;;14.55;2.80;;;20.90;90.80;;;;;;5190211;27;20461;-51
2021/06/29 04:10:24;;;;;;;17.27;3.38;;;21.00;90.60;;;;;;5140276;27;20439;-50
2021/06/29 04:13:18;;;;;;;10.00;3.08;;;21.10;90.60;;;;;;5115968;27;20433;-53
2021/06/29 04:16:14;;;;;;;12.27;3.30;;;21.20;90.50;;;;;;5190207;27;20378;-52
2021/06/29 04:19:09;;;;;;;18.27;3.38;;;20.50;92.20;;;;;;5179089;27;20731;-53
2021/06/29 04:22:18;;;;;;;11.20;3.15;;;20.20;93.20;;;;;;5145400;27;20453;-51
2021/06/29 04:25:14;;;;;;;16.90;4.25;;;19.90;94.00;;;;;;5190222;27;20382;-51
2021/06/29 04:28:08;;;;;;;12.27;3.30;;;19.70;95.00;;;;;;5146245;27;20134;-51
2021/06/29 04:31:03;;;;;;;12.38;3.88;;;19.70;95.40;;;;;;5189892;27;20398;-50
2021/06/29 04:34:07;;;;;;;16.02;3.67;;;20.30;95.10;;;;;;5108672;27;20360;-52
2021/06/29 04:37:03;;;;;;;9.80;2.75;;;21.20;94.00;;;;;;5190280;27;20378;-51
2021/06/29 04:39:57;;;;;;;8.82;3.25;;;22.00;93.30;;;;;;5088011;27;20719;-51
2021/06/29 04:42:52;;;;;;;14.35;3.60;;;22.50;92.30;;;;;;5148315;27;20199;-51
2021/06/29 04:45:47;;;;;;;11.82;3.38;;;23.00;92.00;;;;;;5190493;27;20386;-51
2021/06/29 04:48:44;;;;;;;13.68;3.10;;;23.40;91.20;;;;;;5117516;27;20460;-50
2021/06/29 04:51:39;;;;;;;10.55;3.10;;;24.00;90.50;;;;;;5188436;27;20465;-51
2021/06/29 04:54:33;;;;;;;14.02;3.47;;;25.00;88.50;;;;;;5169543;27;20498;-50
2021/06/29 04:57:24;;;;;;;12.40;3.08;;;26.00;86.00;;;;;;5099455;27;20814;-50
2021/06/29 05:00:20;;;;;;;10.85;2.92;;;26.80;82.80;;;;;;5127230;27;20108;-51
2021/06/29 05:03:29;;;;;;;14.63;3.30;;;27.20;81.30;;;;;;5125636;27;20415;-51
2021/06/29 05:06:25;;;;;;;13.80;3.35;;;27.70;80.20;;;;;;5092341;27;20426;-51
2021/06/29 05:09:20;;;;;;;16.17;4.50;;;28.40;78.50;;;;;;5159221;27;20472;-49
2021/06/29 05:12:15;;;;;;;13.38;4.28;;;29.20;77.00;;;;;;5127501;27;20578;-52
2021/06/29 05:15:10;;;;;;;13.88;3.67;;;29.10;76.60;;;;;;5170283;27;20463;-50
2021/06/29 05:18:07;;;;;;;10.20;3.35;;;28.20;77.50;;;;;;5083420;27;20122;-51
2021/06/29 05:20:59;;;;;;;24.95;4.32;;;27.60;79.50;;;;;;5085746;27;20775;-51
2021/06/29 05:23:52;;;;;;;15.88;4.15;;;27.90;79.00;;;;;;5174551;27;20408;-51
2021/06/29 05:26:53;;;;;;;12.07;2.92;;;29.30;78.10;;;;;;5100603;27;20125;-51
2021/06/29 05:29:48;;;;;;;11.43;3.38;;;30.50;74.90;;;;;;5132012;27;20302;-53
2021/06/29 05:32:43;;;;;;;14.88;3.47;;;29.10;74.70;;;;;;5180604;27;20390;-49
2021/06/29 05:35:47;;;;;;;15.73;4.00;;;29.90;75.30;;;;;;5108956;27;20328;-52
2021/06/29 05:38:41;;;;;;;10.88;3.58;;;31.10;73.90;;;;;;5105348;27;20324;-51
2021/06/29 05:41:32;;;;;;;22.85;3.83;;;30.70;73.00;;;;;;5095144;27;20878;-51
2021/06/29 05:44:27;;;;;;;22.67;4.55;;;28.10;74.60;;;;;;5170699;27;20474;-52
2021/06/29 05:47:25;;;;;;;11.77;3.25;;;27.40;77.70;;;;;;5093586;27;20462;-51
2021/06/29 05:50:20;;;;;;;12.15;3.40;;;27.50;77.90;;;;;;5146552;27;20477;-52
2021/06/29 05:53:13;;;;;;;26.23;3.85;;;28.90;75.70;;;;;;5097511;27;20396;-54
2021/06/29 05:56:11;;;;;;;14.55;3.58;;;29.40;74.70;;;;;;5190207;27;20389;-53
2021/06/29 05:59:09;;;;;;;16.00;3.60;;;30.10;72.80;;;;;;5101864;27;20455;-52
2021/06/29 06:02:09;;;;;;;18.95;3.85;;;30.40;72.30;;;;;;5185752;27;20383;-51
2021/06/29 06:05:07;;;;;;;11.75;3.63;;;31.00;71.80;;;;;;5177420;27;20432;-50
2021/06/29 06:08:03;;;;;;;16.35;3.60;;;31.70;70.50;;;;;;5175674;27;20445;-51
2021/06/29 06:10:57;;;;;;;16.90;3.58;;;32.50;68.80;;;;;;5148144;27;20138;-51
2021/06/29 06:13:54;;;;;;;19.67;3.13;;;32.80;68.50;;;;;;5190016;27;20381;-51
2021/06/29 06:16:48;;;;;;;12.75;3.10;;;29.20;71.50;;;;;;5190095;27;20417;-49
2021/06/29 06:19:44;;;;;;;11.52;3.03;;;26.70;78.60;;;;;;5132667;27;20147;-50
2021/06/29 06:22:39;;;;;;;10.68;3.45;;;26.10;81.90;;;;;;5115813;27;20417;-49
2021/06/29 06:25:39;;;;;;;17.17;3.35;;;26.50;80.80;;;;;;5135245;27;20436;-52
2021/06/29 06:28:34;;;;;;;12.60;3.63;;;27.60;78.30;;;;;;5121378;27;20911;-51
2021/06/29 06:31:30;;;;;;;14.45;3.50;;;28.80;76.10;;;;;;5189719;27;20461;-52
2021/06/29 06:34:26;;;;;;;14.00;3.08;;;28.40;75.10;;;;;;5190384;27;20389;-52
2021/06/29 06:37:21;;;;;;;15.40;2.53;;;27.90;77.90;;;;;;5148767;27;20138;-50
2021/06/29 06:40:21;;;;;;;11.50;3.65;;;26.90;79.50;;;;;;5121546;27;20425;-50
2021/06/29 06:43:22;;;;;;;13.68;3.70;;;26.50;80.80;;;;;;5142333;27;20564;-52
2021/06/29 06:46:17;;;;;;;16.27;3.15;;;27.00;80.80;;;;;;5190381;27;20461;-51
2021/06/29 06:49:28;;;;;;;9.73;3.40;;;27.80;79.20;;;;;;5132113;27;20474;-52
2021/06/29 06:52:33;;;;;;;9.88;3.20;;;28.80;77.50;;;;;;5108819;27;20126;-51
2021/06/29 06:55:27;;;;;;;14.02;3.15;;;30.10;75.30;;;;;;5186936;27;20754;-51
2021/06/29 06:58:22;;;;;;;12.52;3.00;;;30.80;73.90;;;;;;5144383;27;20104;-50
2021/06/29 07:01:29;;;;;;;17.85;3.00;;;31.40;71.40;;;;;;5145425;27;20480;-50
2021/06/29 07:04:24;;;;;;;9.60;3.20;;;32.50;70.30;;;;;;5190179;27;20402;-50
2021/06/29 07:07:24;;;;;;;19.02;2.88;;;32.40;69.30;;;;;;5121534;27;20151;-50
2021/06/29 07:10:20;;;;;;;10.18;3.30;;;32.20;68.70;;;;;;5127393;27;20147;-50
2021/06/29 07:13:15;;;;;;;14.02;3.53;;;33.00;67.20;;;;;;5190159;27;20394;-51
2021/06/29 07:16:10;;;;;;;14.85;2.95;;;32.50;64.10;;;;;;5148436;27;20187;-50
2021/06/29 07:19:05;;;;;;;14.25;2.72;;;32.70;64.60;;;;;;5180080;27;20431;-51
2021/06/29 07:21:42;;;;;;;13.38;2.60;;;33.60;64.80;;;;;;5127152;27;20899;-52
2021/06/29 07:24:21;;;;;;;11.55;3.00;;;33.90;64.30;;;;;;5126191;27;20128;-51
2021/06/29 07:26:58;;;;;;;21.63;3.45;;;32.70;65.80;;;;;;5041657;28;20762;-53
2021/06/29 07:29:36;;;;;;;22.48;3.15;;;33.20;65.40;;;;;;5066413;28;20927;-51
2021/06/29 07:32:15;;;;;;;12.57;2.85;;;32.10;66.30;;;;;;5048403;28;20874;-51
2021/06/29 07:34:53;;;;;;;15.18;2.55;;;33.50;65.50;;;;;;5067129;28;20379;-53
2021/06/29 07:37:31;;;;;;;13.07;2.65;;;34.80;64.10;;;;;;5066901;28;20378;-51
2021/06/29 07:40:10;;;;;;;9.02;2.35;;;34.70;64.00;;;;;;5055213;22;20415;-52
2021/06/29 07:42:47;;;;;;;10.45;2.88;;;33.30;64.30;;;;;;5066508;28;20375;-54
2021/06/29 07:45:28;;;;;;;9.63;2.40;;;34.30;64.50;;;;;;5051672;28;20380;-55
2021/06/29 07:48:06;;;;;;;17.10;2.75;;;33.10;64.90;;;;;;5066826;28;20378;-55
2021/06/29 07:50:44;;;;;;;16.15;2.72;;;32.90;66.50;;;;;;5066874;28;20769;-53
2021/06/29 07:53:21;;;;;;;7.93;2.33;;;32.00;68.60;;;;;;5066924;28;20134;-54
2021/06/29 07:55:58;;;;;;;12.70;2.60;;;32.70;67.70;;;;;;5066910;28;20374;-51
2021/06/29 07:58:37;;;;;;;9.73;2.40;;;34.50;65.10;;;;;;5116852;27;20755;-53
2021/06/29 08:01:17;;;;;;;12.52;3.20;;;32.50;66.70;;;;;;5050208;28;20376;-51
2021/06/29 08:03:55;;;;;;;7.18;2.10;;;32.80;66.20;;;;;;5047157;28;20393;-53
2021/06/29 08:06:33;;;;;;;14.00;2.80;;;34.20;64.30;;;;;;5061824;28;20394;-53
2021/06/29 08:09:11;;;;;;;7.60;2.15;;;33.70;64.60;;;;;;5037939;28;20394;-51
2021/06/29 08:11:49;;;;;;;8.80;2.15;;;35.30;63.50;;;;;;5066724;28;20383;-52
2021/06/29 08:14:28;;;;;;;11.15;2.40;;;36.20;62.20;;;;;;5067008;28;20383;-54
2021/06/29 08:17:07;;;;;;;14.95;2.97;;;34.40;61.70;;;;;;5059945;28;20377;-53
2021/06/29 08:19:44;;;;;;;16.80;3.03;;;32.40;66.30;;;;;;5049073;28;20368;-53
2021/06/29 08:22:23;;;;;;;14.32;3.22;;;32.90;65.90;;;;;;5086288;28;20366;-53
2021/06/29 08:25:02;;;;;;;12.50;2.92;;;32.00;67.20;;;;;;5064062;28;20383;-53
2021/06/29 08:27:39;;;;;;;16.98;2.90;;;31.80;68.90;;;;;;5050149;28;20770;-51
2021/06/29 08:30:18;;;;;;;12.27;2.95;;;32.00;67.50;;;;;;5053694;28;20763;-51
2021/06/29 08:32:55;;;;;;;21.90;3.20;;;31.40;69.20;;;;;;5066611;28;20765;-51
2021/06/29 08:35:32;;;;;;;12.02;3.08;;;32.60;68.60;;;;;;5107066;27;20136;-53
2021/06/29 08:38:12;;;;;;;10.88;2.50;;;31.50;67.90;;;;;;5106697;27;20407;-53
2021/06/29 08:40:50;;;;;;;13.15;2.40;;;34.00;67.10;;;;;;5080140;27;20416;-54
2021/06/29 08:43:28;;;;;;;8.85;2.17;;;34.10;66.20;;;;;;5065582;28;20379;-52
2021/06/29 08:46:07;;;;;;;13.43;3.55;;;34.50;65.50;;;;;;5065223;28;20386;-52
2021/06/29 08:48:44;;;;;;;15.82;3.13;;;34.20;65.00;;;;;;5049704;28;20393;-55
2021/06/29 08:51:23;;;;;;;13.07;2.33;;;34.70;65.30;;;;;;5065063;28;20375;-55
2021/06/29 08:54:02;;;;;;;11.63;2.78;;;36.30;64.60;;;;;;5066556;28;20417;-55
2021/06/29 08:56:40;;;;;;;11.95;2.60;;;33.70;64.80;;;;;;5066048;28;20762;-54
2021/06/29 08:59:19;;;;;;;19.70;2.92;;;35.30;63.80;;;;;;5066640;27;20754;-54
2021/06/29 09:02:00;;;;;;;18.70;2.72;;;34.90;64.70;;;;;;5056382;28;20924;-52
2021/06/29 09:05:16;;;;;;;16.60;2.63;;;34.60;64.50;;;;;;5045877;28;20862;-54
2021/06/29 09:08:03;;;;;;;16.73;2.47;;;35.10;63.40;;;;;;5066464;28;20371;-52
2021/06/29 09:10:43;;;;;;;14.20;2.55;;;33.90;65.70;;;;;;5065925;28;20765;-54
2021/06/29 09:13:22;;;;;;;14.25;2.80;;;33.80;66.00;;;;;;5052273;28;20396;-54
2021/06/29 09:15:57;;;;;;;13.02;2.97;;;36.30;64.10;;;;;;5107173;27;1372506;-52
2021/06/29 09:18:40;;;;;;;18.45;2.58;;;36.40;62.50;;;;;;5066377;28;20390;-53
2021/06/29 09:21:18;;;;;;;15.80;3.17;;;34.60;64.80;;;;;;5066475;28;20379;-54
2021/06/29 09:23:55;;;;;;;14.80;2.72;;;35.10;64.30;;;;;;5066236;28;20765;-53
2021/06/29 09:26:41;;;;;;;17.20;2.80;;;37.20;63.10;;;;;;5066484;28;20960;-51
2021/06/29 09:29:34;;;;;;;16.27;2.42;;;37.30;62.40;;;;;;5066448;28;20376;-55
2021/06/29 09:32:19;;;;;;;15.80;3.13;;;36.90;61.20;;;;;;5066160;28;20386;-54
2021/06/29 09:35:06;;;;;;;19.88;3.15;;;38.00;61.40;;;;;;5066288;28;20943;-52
2021/06/29 09:37:47;;;;;;;11.40;2.30;;;35.70;60.20;;;;;;5060342;28;20395;-55
2021/06/29 09:40:30;;;;;;;14.02;3.55;;;37.70;60.40;;;;;;5160626;27;20390;-51
2021/06/29 09:43:17;;;;;;;16.90;2.63;;;40.40;58.60;;;;;;5126964;27;20836;-55
2021/06/29 09:45:56;;;;;;;16.75;2.58;;;38.00;57.50;;;;;;5062798;28;20380;-56
2021/06/29 09:48:55;;;;;;;13.05;2.70;;;39.40;58.30;;;;;;5107313;27;20376;-51
2021/06/29 09:51:34;;;;;;;15.77;3.65;;;39.30;58.50;;;;;;5107350;27;20235;-51
2021/06/29 09:54:13;;;;;;;15.88;2.63;;;37.80;56.80;;;;;;5066097;28;20394;-52
2021/06/29 09:56:51;;;;;;;11.55;2.90;;;38.30;57.10;;;;;;5048124;28;20376;-52
2021/06/29 09:59:28;;;;;;;18.15;2.45;;;38.30;58.20;;;;;;5066622;28;20375;-51
2021/06/29 10:02:11;;;;;;;13.13;2.53;;;39.60;56.50;;;;;;5066156;28;20127;-52
2021/06/29 10:04:48;;;;;;;14.05;2.60;;;39.80;56.40;;;;;;5066406;28;20379;-51
2021/06/29 10:07:26;;;;;;;18.90;3.22;;;38.90;54.50;;;;;;5066484;28;20398;-53
2021/06/29 10:10:15;;;;;;;16.35;2.83;;;39.90;56.30;;;;;;5066907;28;20773;-52
2021/06/29 10:13:14;;;;;;;16.55;3.30;;;36.90;58.30;;;;;;5067003;28;20367;-54
2021/06/29 10:15:52;;;;;;;21.67;3.78;;;35.50;58.70;;;;;;5127941;27;20123;-52
2021/06/29 10:18:35;;;;;;;19.80;2.55;;;34.40;60.10;;;;;;5066406;28;21808;-54
2021/06/29 10:21:20;;;;;;;14.70;3.10;;;34.80;59.30;;;;;;5066340;28;20379;-51
2021/06/29 10:24:04;;;;;;;23.75;3.38;;;36.10;60.80;;;;;;5068341;28;20774;-54
2021/06/29 10:26:44;;;;;;;17.15;3.20;;;35.70;58.50;;;;;;5107097;27;20379;-57
2021/06/29 10:29:25;;;;;;;11.95;2.83;;;36.20;59.40;;;;;;5086970;27;20374;-50
2021/06/29 10:32:11;;;;;;;18.45;3.10;;;38.60;58.50;;;;;;5066554;27;20700;-52
2021/06/29 10:34:51;;;;;;;18.95;2.63;;;36.80;59.10;;;;;;5066928;28;20375;-52
2021/06/29 10:37:29;;;;;;;17.85;2.75;;;34.00;60.40;;;;;;5067266;28;20387;-51
2021/06/29 10:40:08;;;;;;;11.18;2.70;;;34.90;61.10;;;;;;5067149;28;20373;-52
2021/06/29 10:42:46;;;;;;;14.65;4.22;;;33.90;61.80;;;;;;5087156;27;20384;-50
2021/06/29 10:45:31;;;;;;;12.45;2.85;;;35.30;61.10;;;;;;5107170;27;20372;-52
2021/06/29 10:48:23;;;;;;;14.13;2.90;;;36.70;58.90;;;;;;5066743;28;20936;-53
2021/06/29 10:51:03;;;;;;;11.80;2.35;;;35.60;60.60;;;;;;5127750;27;20382;-51
2021/06/29 10:53:47;;;;;;;11.20;2.80;;;37.20;58.70;;;;;;5062347;28;20379;-52
2021/06/29 10:56:45;;;;;;;13.38;2.97;;;37.50;58.50;;;;;;5087301;27;20383;-52
2021/06/29 10:59:34;;;;;;;18.13;2.70;;;40.00;57.40;;;;;;5107089;27;20137;-55
2021/06/29 11:02:30;;;;;;;10.45;2.47;;;37.10;56.50;;;;;;5086655;27;20385;-57
2021/06/29 11:05:11;;;;;;;16.38;2.50;;;39.10;56.50;;;;;;5066567;28;20394;-54
2021/06/29 11:07:48;;;;;;;11.70;2.50;;;37.20;56.60;;;;;;5066983;28;20379;-51
2021/06/29 11:10:32;;;;;;;17.63;2.60;;;35.50;60.00;;;;;;5066319;28;20383;-54
2021/06/29 11:13:10;;;;;;;10.60;2.40;;;37.50;57.50;;;;;;5066837;28;20375;-54
2021/06/29 11:15:54;;;;;;;14.90;2.20;;;39.50;56.10;;;;;;5066769;28;20893;-55
2021/06/29 11:18:38;;;;;;;14.23;3.10;;;40.00;56.40;;;;;;5050143;28;20399;-53
2021/06/29 11:21:19;;;;;;;20.05;4.25;;;40.00;56.30;;;;;;5087974;27;20388;-54
2021/06/29 11:23:56;;;;;;;11.20;2.35;;;39.70;57.10;;;;;;5046626;28;20912;-54
2021/06/29 11:26:41;;;;;;;18.10;2.67;;;38.50;57.70;;;;;;5064366;28;20391;-54
2021/06/29 11:29:37;;;;;;;12.73;2.55;;;40.00;56.50;;;;;;5066509;28;20379;-53
2021/06/29 11:32:31;;;;;;;17.88;3.30;;;39.50;56.80;;;;;;5066719;28;20391;-54
2021/06/29 11:35:38;;;;;;;20.55;2.70;;;39.70;57.40;;;;;;5107260;27;20387;-54
2021/06/29 11:38:36;;;;;;;17.42;3.03;;;38.60;58.10;;;;;;5086034;27;20767;-53
2021/06/29 11:41:34;;;;;;;17.65;2.78;;;37.90;58.10;;;;;;5066851;28;20379;-52
2021/06/29 11:44:11;;;;;;;18.75;4.05;;;37.10;59.50;;;;;;5148621;27;20134;-54
2021/06/29 11:46:52;;;;;;;15.48;2.20;;;38.10;58.70;;;;;;5066460;28;20379;-55
2021/06/29 11:49:45;;;;;;;21.67;3.40;;;38.80;58.30;;;;;;5060839;28;20395;-51
2021/06/29 11:52:35;;;;;;;21.10;3.40;;;35.70;59.50;;;;;;5085939;27;20385;-55
2021/06/29 11:55:19;;;;;;;22.23;3.60;;;35.00;62.60;;;;;;5066821;27;20407;-54
2021/06/29 11:57:57;;;;;;;16.35;3.20;;;35.50;60.40;;;;;;5046122;27;20411;-55
2021/06/29 12:00:38;;;;;;;19.23;3.70;;;36.40;60.90;;;;;;5101418;27;20410;-52
2021/06/29 12:03:19;;;;;;;17.08;3.30;;;36.10;60.50;;;;;;5101339;27;20413;-52
2021/06/29 12:05:56;;;;;;;19.02;4.28;;;36.40;63.60;;;;;;5065564;28;20383;-52
2021/06/29 12:08:35;;;;;;;21.67;3.20;;;35.00;62.20;;;;;;5003604;28;20383;-51
2021/06/29 12:11:15;;;;;;;18.17;3.83;;;34.50;64.50;;;;;;5066430;28;20931;-52
2021/06/29 12:13:52;;;;;;;20.48;3.50;;;34.50;62.90;;;;;;5066544;28;20374;-52
2021/06/29 12:16:35;;;;;;;24.15;3.78;;;34.10;65.00;;;;;;5066380;28;20776;-51
2021/06/29 12:19:14;;;;;;;21.33;3.35;;;33.70;64.10;;;;;;5066214;28;20379;-57
2021/06/29 12:21:54;;;;;;;21.27;3.63;;;33.30;64.80;;;;;;5066416;28;20762;-53
2021/06/29 12:24:32;;;;;;;22.20;3.72;;;34.30;63.20;;;;;;5106957;27;20380;-54
2021/06/29 12:27:17;;;;;;;21.20;3.70;;;33.70;63.70;;;;;;5066221;27;20379;-53
2021/06/29 12:29:55;;;;;;;22.30;3.80;;;33.80;65.60;;;;;;5066718;28;20401;-52
2021/06/29 12:32:41;;;;;;;23.88;4.20;;;34.40;64.80;;;;;;5066659;28;20390;-53
2021/06/29 12:35:21;;;;;;;24.25;3.55;;;34.80;64.80;;;;;;5066343;28;20375;-56
2021/06/29 12:38:03;;;;;;;17.38;3.13;;;34.40;63.90;;;;;;5107015;27;20387;-56
2021/06/29 12:40:49;;;;;;;18.45;3.35;;;33.80;66.60;;;;;;5066358;28;20379;-52
2021/06/29 12:43:32;;;;;;;23.10;3.28;;;35.30;63.60;;;;;;5107108;27;20462;-52
2021/06/29 12:46:20;;;;;;;17.02;3.30;;;34.70;64.10;;;;;;5066326;28;20387;-54
2021/06/29 12:49:00;;;;;;;17.80;4.28;;;34.50;63.70;;;;;;5066520;28;20790;-52
2021/06/29 12:52:07;;;;;;;13.30;3.05;;;34.60;64.60;;;;;;5066228;28;20889;-51
2021/06/29 12:54:50;;;;;;;16.70;3.65;;;34.80;65.30;;;;;;5066474;28;20379;-54
2021/06/29 12:57:27;;;;;;;21.50;3.38;;;33.70;66.50;;;;;;5066552;28;20901;-53
2021/06/29 13:00:09;;;;;;;18.08;3.35;;;33.40;67.20;;;;;;5066468;28;20150;-55
2021/06/29 13:02:47;;;;;;;16.40;3.25;;;33.10;67.20;;;;;;5066649;28;20776;-52
2021/06/29 13:05:26;;;;;;;13.07;3.20;;;33.30;66.90;;;;;;5066437;28;20888;-51
2021/06/29 13:08:32;;;;;;;13.95;3.03;;;33.80;67.00;;;;;;5066574;28;20899;-51
2021/06/29 13:11:15;;;;;;;12.65;3.05;;;33.60;67.70;;;;;;5066604;28;20387;-51
2021/06/29 13:14:01;;;;;;;18.92;2.67;;;33.80;66.70;;;;;;5066680;28;20481;-51
2021/06/29 13:16:38;;;;;;;14.73;3.38;;;33.50;67.60;;;;;;5107200;27;20547;-53
2021/06/29 13:19:19;;;;;;;13.60;3.08;;;33.80;66.60;;;;;;5066639;28;20379;-55
2021/06/29 13:22:03;;;;;;;14.45;2.80;;;34.20;65.80;;;;;;5066369;28;20383;-53
2021/06/29 13:24:50;;;;;;;13.50;2.80;;;35.00;66.40;;;;;;5067013;28;20379;-54
2021/06/29 13:27:31;;;;;;;17.75;3.38;;;34.90;65.90;;;;;;5066744;28;20371;-51
2021/06/29 13:30:11;;;;;;;17.00;3.00;;;34.90;65.10;;;;;;5086359;27;20374;-53
2021/06/29 13:32:52;;;;;;;18.15;3.22;;;34.20;67.70;;;;;;5066626;28;20390;-52
2021/06/29 13:35:34;;;;;;;18.40;3.40;;;33.20;70.50;;;;;;5106874;27;20901;-51
2021/06/29 13:38:16;;;;;;;14.43;3.03;;;33.50;71.10;;;;;;5127484;27;20769;-56
2021/06/29 13:40:55;;;;;;;9.30;2.70;;;34.40;69.10;;;;;;5066521;28;20400;-51
2021/06/29 13:43:35;;;;;;;21.10;3.88;;;34.30;68.10;;;;;;5066505;28;20413;-55
2021/06/29 13:46:20;;;;;;;9.77;2.42;;;33.10;68.90;;;;;;5066509;28;20371;-52
2021/06/29 13:48:58;;;;;;;10.07;2.72;;;32.40;71.80;;;;;;5066538;28;20387;-52
2021/06/29 13:51:34;;;;;;;9.48;2.72;;;32.90;70.90;;;;;;5066566;28;20127;-56
2021/06/29 13:54:23;;;;;;;12.18;2.97;;;32.40;71.90;;;;;;5086553;27;20125;-52
2021/06/29 13:57:00;;;;;;;8.13;2.97;;;32.30;71.00;;;;;;5066289;28;20375;-52
2021/06/29 13:59:40;;;;;;;9.05;2.80;;;32.30;70.60;;;;;;5066423;28;20379;-52
2021/06/29 14:02:27;;;;;;;13.00;2.80;;;32.90;71.10;;;;;;5106773;27;20375;-54
2021/06/29 14:05:06;;;;;;;7.65;2.72;;;33.10;70.80;;;;;;5107126;27;20372;-54
2021/06/29 14:07:43;;;;;;;12.25;2.40;;;33.90;68.30;;;;;;5066008;28;20397;-50
2021/06/29 14:10:28;;;;;;;9.05;2.70;;;33.40;68.90;;;;;;5127620;27;20407;-54
2021/06/29 14:13:06;;;;;;;11.93;2.78;;;33.30;68.90;;;;;;5066775;28;20382;-51
2021/06/29 14:15:45;;;;;;;15.27;2.53;;;32.90;70.80;;;;;;5107154;27;20387;-52
2021/06/29 14:18:22;;;;;;;9.02;2.55;;;32.90;72.60;;;;;;5066031;28;20382;-53
2021/06/29 14:21:08;;;;;;;10.65;2.72;;;32.60;72.00;;;;;;5107035;27;20401;-52
2021/06/29 14:23:49;;;;;;;16.67;2.92;;;31.70;72.60;;;;;;5066520;28;20375;-52
2021/06/29 14:26:28;;;;;;;9.02;2.90;;;31.40;74.20;;;;;;5066438;28;20897;-56
2021/06/29 14:29:06;;;;;;;10.13;2.47;;;31.30;74.80;;;;;;5147934;27;20369;-52
2021/06/29 14:31:44;;;;;;;10.85;3.08;;;31.20;75.70;;;;;;5066328;28;20386;-51
2021/06/29 14:34:22;;;;;;;13.30;2.67;;;31.30;75.80;;;;;;5066566;28;20387;-52